Time;durP1;ratioP1;P1;durP2;ratioP2;P2;SDS_P1;SDS_P2;PMS_P1;PMS_P2;Temp;Humidity;BMP_temperature;BMP_pressure;BME280_temperature;BME280_humidity;BME280_pressure;Samples;Min_cycle;Max_cycle;Signal;HPM_P1;HPM_P2
2021/12/01 00:00:17;;;;;;;30.67;21.90;;;;;;;;;;5076112;28;20519;-75
2021/12/01 00:02:44;;;;;;;22.90;15.10;;;;;;;;;;5076392;28;20428;-77
2021/12/01 00:05:12;;;;;;;32.37;22.97;;;;;;;;;;5075883;28;20491;-75
2021/12/01 00:07:39;;;;;;;32.70;21.30;;;;;;;;;;5075512;28;20973;-74
2021/12/01 00:10:09;;;;;;;29.50;21.47;;;;;;;;;;5075909;28;20467;-74
2021/12/01 00:12:36;;;;;;;28.77;20.63;;;;;;;;;;5075368;28;21084;-74
2021/12/01 00:15:04;;;;;;;32.77;20.33;;;;;;;;;;5075401;28;20525;-74
2021/12/01 00:17:31;;;;;;;25.73;20.20;;;;;;;;;;5075705;28;20524;-75
2021/12/01 00:19:59;;;;;;;28.73;19.43;;;;;;;;;;5075251;28;20472;-74
2021/12/01 00:22:27;;;;;;;28.73;19.95;;;;;;;;;;5075277;28;20933;-73
2021/12/01 00:24:54;;;;;;;30.93;19.33;;;;;;;;;;5075546;28;20285;-73
2021/12/01 00:27:22;;;;;;;32.83;20.77;;;;;;;;;;5074836;28;20563;-73
2021/12/01 00:29:50;;;;;;;34.80;21.43;;;;;;;;;;5075111;28;20478;-74
2021/12/01 00:32:17;;;;;;;26.52;17.38;;;;;;;;;;5075302;28;20484;-73
2021/12/01 00:34:44;;;;;;;25.20;18.07;;;;;;;;;;5074988;28;20285;-74
2021/12/01 00:37:12;;;;;;;25.50;17.40;;;;;;;;;;5075382;28;20446;-75
2021/12/01 00:39:39;;;;;;;20.43;14.57;;;;;;;;;;5074864;28;20539;-75
2021/12/01 00:42:06;;;;;;;21.60;15.23;;;;;;;;;;5074742;28;20484;-75
2021/12/01 00:44:36;;;;;;;23.07;13.90;;;;;;;;;;5075065;28;20535;-75
2021/12/01 00:47:06;;;;;;;26.10;15.07;;;;;;;;;;5073870;28;20834;-75
2021/12/01 00:49:34;;;;;;;15.50;12.27;;;;;;;;;;5075492;28;20432;-76
2021/12/01 00:52:01;;;;;;;24.93;15.17;;;;;;;;;;5074920;28;20826;-76
2021/12/01 00:54:29;;;;;;;21.00;16.67;;;;;;;;;;5074792;28;21034;-76
2021/12/01 00:56:56;;;;;;;20.13;15.40;;;;;;;;;;5074356;28;20530;-76
2021/12/01 00:59:23;;;;;;;23.63;16.67;;;;;;;;;;5075046;28;20523;-76
2021/12/01 01:01:52;;;;;;;18.40;14.03;;;;;;;;;;5074602;28;20472;-76
2021/12/01 01:04:19;;;;;;;16.52;14.40;;;;;;;;;;5075443;28;20515;-75
2021/12/01 01:06:46;;;;;;;15.93;11.80;;;;;;;;;;5074237;28;20285;-75
2021/12/01 01:09:14;;;;;;;12.73;10.60;;;;;;;;;;5074966;28;20516;-74
2021/12/01 01:17:18;;;;;;;14.20;12.10;;;;;;;;;;5074303;28;20455;-75
2021/12/01 01:19:45;;;;;;;15.90;12.23;;;;;;;;;;5074548;28;20949;-75
2021/12/01 01:22:12;;;;;;;14.13;12.67;;;;;;;;;;5074620;28;20515;-75
2021/12/01 01:24:39;;;;;;;11.87;10.47;;;;;;;;;;5074285;28;20546;-74
2021/12/01 01:27:07;;;;;;;13.27;11.87;;;;;;;;;;5073925;28;20472;-74
2021/12/01 01:29:36;;;;;;;9.57;8.13;;;;;;;;;;5073984;28;20938;-74
2021/12/01 01:32:04;;;;;;;12.07;10.83;;;;;;;;;;5073741;28;20782;-77
2021/12/01 01:34:34;;;;;;;14.57;13.00;;;;;;;;;;5074099;28;20515;-77
2021/12/01 01:37:01;;;;;;;11.30;10.13;;;;;;;;;;5074455;28;20499;-77
2021/12/01 01:39:28;;;;;;;13.17;10.90;;;;;;;;;;5074132;28;20527;-77
2021/12/01 01:41:55;;;;;;;9.90;7.95;;;;;;;;;;5074267;28;20440;-76
2021/12/01 01:44:23;;;;;;;11.73;10.53;;;;;;;;;;5073600;28;20309;-77
2021/12/01 01:46:50;;;;;;;15.27;11.47;;;;;;;;;;5073609;28;20535;-77
2021/12/01 01:49:19;;;;;;;11.40;10.20;;;;;;;;;;5073806;28;20534;-78
2021/12/01 01:51:48;;;;;;;13.55;11.73;;;;;;;;;;5073480;28;20507;-77
2021/12/01 01:54:16;;;;;;;10.80;9.70;;;;;;;;;;5073665;28;20331;-75
2021/12/01 01:56:44;;;;;;;9.83;8.93;;;;;;;;;;5073235;28;20523;-76
2021/12/01 01:59:12;;;;;;;10.37;9.37;;;;;;;;;;5073690;28;20535;-76
2021/12/01 02:01:45;;;;;;;11.00;10.00;;;;;;;;;;5073614;28;20775;-77
2021/12/01 02:04:15;;;;;;;7.90;7.17;;;;;;;;;;5073244;28;20483;-75
2021/12/01 02:06:43;;;;;;;11.40;10.20;;;;;;;;;;5073562;28;20437;-76
2021/12/01 02:09:12;;;;;;;13.90;9.20;;;;;;;;;;5073225;28;20451;-77
2021/12/01 02:11:39;;;;;;;10.90;6.80;;;;;;;;;;5073099;28;20519;-75
2021/12/01 02:14:06;;;;;;;10.00;9.10;;;;;;;;;;5073452;28;20563;-75
2021/12/01 02:16:33;;;;;;;9.30;7.60;;;;;;;;;;5073423;28;20523;-75
2021/12/01 02:19:01;;;;;;;9.90;8.90;;;;;;;;;;5074143;28;20847;-75
2021/12/01 02:21:31;;;;;;;9.20;8.40;;;;;;;;;;5073829;28;20527;-75
2021/12/01 02:24:01;;;;;;;9.37;8.50;;;;;;;;;;5073651;28;20468;-74
2021/12/01 02:26:29;;;;;;;8.60;7.80;;;;;;;;;;5072942;28;20532;-75
2021/12/01 02:28:58;;;;;;;6.53;6.00;;;;;;;;;;5073416;28;20557;-76
2021/12/01 02:31:28;;;;;;;8.47;7.77;;;;;;;;;;5073425;28;20865;-75
2021/12/01 02:33:56;;;;;;;8.20;7.60;;;;;;;;;;5073486;28;20474;-75
2021/12/01 02:36:23;;;;;;;8.50;7.80;;;;;;;;;;5073175;28;20874;-74
2021/12/01 02:38:52;;;;;;;7.30;6.63;;;;;;;;;;5073285;28;20531;-74
2021/12/01 02:41:26;;;;;;;7.93;7.23;;;;;;;;;;5073205;28;20284;-74
2021/12/01 02:43:54;;;;;;;9.30;8.13;;;;;;;;;;5073524;28;20524;-75
2021/12/01 02:46:21;;;;;;;8.77;7.97;;;;;;;;;;5072890;28;20448;-76
2021/12/01 02:48:49;;;;;;;6.95;5.80;;;;;;;;;;5073221;28;20671;-76
2021/12/01 02:51:17;;;;;;;7.37;6.70;;;;;;;;;;5072800;28;20252;-75
2021/12/01 02:53:44;;;;;;;7.57;6.87;;;;;;;;;;5073041;28;20479;-75
2021/12/01 02:56:13;;;;;;;8.17;7.43;;;;;;;;;;5073025;28;20486;-75
2021/12/01 02:58:41;;;;;;;5.47;4.97;;;;;;;;;;5072608;28;20538;-73
2021/12/01 03:01:10;;;;;;;7.90;7.10;;;;;;;;;;5073245;28;20451;-74
2021/12/01 03:03:38;;;;;;;6.33;5.83;;;;;;;;;;5073436;28;20524;-74
2021/12/01 03:06:05;;;;;;;7.53;6.90;;;;;;;;;;5072998;28;20523;-74
2021/12/01 03:08:32;;;;;;;6.32;4.40;;;;;;;;;;5072647;28;20475;-74
2021/12/01 03:10:59;;;;;;;7.30;6.60;;;;;;;;;;5075914;28;20198;-75
2021/12/01 03:13:28;;;;;;;6.97;6.27;;;;;;;;;;5076954;28;20494;-75
2021/12/01 03:15:55;;;;;;;5.95;5.53;;;;;;;;;;5076747;28;20546;-75
2021/12/01 03:18:23;;;;;;;7.27;6.57;;;;;;;;;;5077048;28;20277;-76
2021/12/01 03:20:50;;;;;;;6.40;5.85;;;;;;;;;;5076743;28;20527;-76
2021/12/01 03:23:17;;;;;;;4.95;4.55;;;;;;;;;;5076308;28;20288;-75
2021/12/01 03:25:45;;;;;;;7.00;6.50;;;;;;;;;;5076251;28;20199;-75
2021/12/01 03:28:12;;;;;;;6.22;5.72;;;;;;;;;;5075969;28;20566;-75
2021/12/01 03:30:42;;;;;;;7.33;6.77;;;;;;;;;;5076274;28;20281;-75
2021/12/01 03:33:10;;;;;;;5.65;5.25;;;;;;;;;;5076063;28;20558;-75
2021/12/01 03:35:38;;;;;;;6.55;5.68;;;;;;;;;;5076352;28;20277;-75
2021/12/01 03:38:06;;;;;;;6.90;6.30;;;;;;;;;;5076122;28;20285;-75
2021/12/01 03:40:33;;;;;;;6.00;5.40;;;;;;;;;;5076308;28;20440;-75
2021/12/01 03:43:01;;;;;;;5.80;5.30;;;;;;;;;;5076078;28;20289;-74
2021/12/01 03:45:28;;;;;;;6.20;5.60;;;;;;;;;;5076234;28;20534;-75
2021/12/01 03:47:57;;;;;;;5.80;4.95;;;;;;;;;;5076127;28;20280;-74
2021/12/01 03:50:24;;;;;;;6.07;4.97;;;;;;;;;;5076074;28;20652;-74
2021/12/01 03:52:52;;;;;;;7.50;6.80;;;;;;;;;;5076335;28;20532;-74
2021/12/01 03:55:19;;;;;;;6.50;6.00;;;;;;;;;;5076437;28;20235;-74
2021/12/01 03:57:47;;;;;;;6.90;6.17;;;;;;;;;;5076036;28;20292;-76
2021/12/01 04:00:16;;;;;;;6.30;5.80;;;;;;;;;;5075907;28;20520;-77
2021/12/01 04:02:44;;;;;;;6.73;6.13;;;;;;;;;;5076084;28;20877;-76
2021/12/01 04:05:14;;;;;;;6.10;5.50;;;;;;;;;;5076280;28;20464;-76
2021/12/01 04:07:41;;;;;;;5.32;4.93;;;;;;;;;;5075866;28;20444;-76
2021/12/01 04:10:11;;;;;;;5.93;5.43;;;;;;;;;;5075411;28;20281;-75
2021/12/01 04:12:38;;;;;;;5.03;4.53;;;;;;;;;;5075648;28;20285;-76
2021/12/01 04:15:06;;;;;;;7.30;6.70;;;;;;;;;;5075993;28;20498;-77
2021/12/01 04:17:33;;;;;;;5.57;5.07;;;;;;;;;;5075304;28;20281;-77
2021/12/01 04:20:00;;;;;;;5.40;5.00;;;;;;;;;;5075363;28;20874;-76
2021/12/01 04:22:29;;;;;;;6.33;5.70;;;;;;;;;;5075215;28;20543;-77
2021/12/01 04:24:56;;;;;;;6.45;5.95;;;;;;;;;;5075214;28;20451;-76
2021/12/01 04:27:23;;;;;;;5.45;5.05;;;;;;;;;;5075176;28;20264;-77
2021/12/01 04:29:50;;;;;;;6.67;6.13;;;;;;;;;;5075637;28;20182;-75
2021/12/01 04:32:18;;;;;;;6.20;5.70;;;;;;;;;;5075410;28;20872;-74
2021/12/01 04:34:45;;;;;;;5.00;4.50;;;;;;;;;;5075240;28;20482;-74
2021/12/01 04:37:13;;;;;;;6.67;6.00;;;;;;;;;;5075189;28;20479;-74
2021/12/01 04:39:42;;;;;;;7.30;6.67;;;;;;;;;;5075082;28;20448;-75
2021/12/01 04:42:10;;;;;;;8.38;7.60;;;;;;;;;;5075813;28;20448;-75
2021/12/01 04:44:38;;;;;;;6.87;6.30;;;;;;;;;;5075342;28;20287;-75
2021/12/01 04:47:09;;;;;;;7.03;6.40;;;;;;;;;;5075278;28;20852;-75
2021/12/01 04:49:39;;;;;;;6.55;6.05;;;;;;;;;;5074740;28;20190;-76
2021/12/01 04:52:07;;;;;;;6.07;5.57;;;;;;;;;;5074938;28;20241;-76
2021/12/01 04:54:34;;;;;;;4.90;4.50;;;;;;;;;;5074522;28;20221;-75
2021/12/01 04:57:04;;;;;;;7.13;6.43;;;;;;;;;;5075085;28;20201;-75
2021/12/01 04:59:33;;;;;;;5.47;4.97;;;;;;;;;;5075161;28;20478;-74
2021/12/01 05:02:01;;;;;;;13.77;6.70;;;;;;;;;;5074660;28;20445;-75
2021/12/01 05:04:28;;;;;;;4.65;4.30;;;;;;;;;;5075479;28;20452;-76
2021/12/01 05:06:55;;;;;;;7.45;6.75;;;;;;;;;;5074272;28;20204;-75
2021/12/01 05:09:23;;;;;;;6.93;6.33;;;;;;;;;;5074514;28;20240;-76
2021/12/01 05:11:50;;;;;;;6.90;6.13;;;;;;;;;;5074865;28;20441;-74
2021/12/01 05:14:20;;;;;;;6.63;5.77;;;;;;;;;;5074367;28;20220;-75
2021/12/01 05:16:47;;;;;;;7.40;6.70;;;;;;;;;;5074917;28;20810;-75
2021/12/01 05:19:14;;;;;;;5.90;5.30;;;;;;;;;;5074346;28;20288;-72
2021/12/01 05:21:42;;;;;;;6.93;6.28;;;;;;;;;;5074320;28;20526;-72
2021/12/01 05:24:09;;;;;;;9.90;6.23;;;;;;;;;;5074579;28;20292;-71
2021/12/01 05:26:37;;;;;;;6.43;5.82;;;;;;;;;;5074192;28;20849;-71
2021/12/01 05:29:04;;;;;;;7.78;7.03;;;;;;;;;;5074044;28;20316;-71
2021/12/01 05:31:33;;;;;;;5.37;4.93;;;;;;;;;;5072869;28;20707;-71
2021/12/01 05:34:01;;;;;;;7.00;5.60;;;;;;;;;;5073268;28;20472;-72
2021/12/01 05:36:28;;;;;;;6.93;6.32;;;;;;;;;;5074675;28;20285;-72
2021/12/01 05:38:55;;;;;;;6.57;6.00;;;;;;;;;;5074388;28;20233;-71
2021/12/01 05:41:23;;;;;;;7.07;6.33;;;;;;;;;;5074098;28;20483;-71
2021/12/01 05:43:50;;;;;;;5.30;4.15;;;;;;;;;;5074221;28;20475;-70
2021/12/01 05:46:18;;;;;;;6.22;5.60;;;;;;;;;;5074245;28;20324;-71
2021/12/01 05:48:46;;;;;;;5.95;5.35;;;;;;;;;;5074443;28;20300;-71
2021/12/01 05:51:14;;;;;;;6.95;6.10;;;;;;;;;;5073873;28;20280;-72
2021/12/01 05:53:41;;;;;;;7.18;6.47;;;;;;;;;;5073214;28;20682;-71
2021/12/01 05:56:08;;;;;;;9.07;5.63;;;;;;;;;;5073698;28;20194;-71
2021/12/01 05:58:35;;;;;;;7.65;5.13;;;;;;;;;;5073802;28;20288;-71
2021/12/01 06:01:02;;;;;;;5.78;5.18;;;;;;;;;;5073840;28;20280;-74
2021/12/01 06:03:30;;;;;;;7.10;5.82;;;;;;;;;;5073976;28;20307;-77
2021/12/01 06:05:58;;;;;;;6.18;5.57;;;;;;;;;;5073367;28;20289;-77
2021/12/01 06:08:26;;;;;;;10.00;6.10;;;;;;;;;;5073289;28;20230;-75
2021/12/01 06:10:53;;;;;;;5.13;4.63;;;;;;;;;;5073771;28;20517;-74
2021/12/01 06:13:21;;;;;;;5.70;5.20;;;;;;;;;;5073022;28;20241;-73
2021/12/01 06:15:49;;;;;;;5.70;4.75;;;;;;;;;;5073347;28;20556;-74
2021/12/01 06:18:17;;;;;;;6.30;4.85;;;;;;;;;;5073465;28;20552;-74
2021/12/01 06:20:44;;;;;;;5.27;4.80;;;;;;;;;;5073111;28;20257;-74
2021/12/01 06:23:13;;;;;;;4.45;4.05;;;;;;;;;;5073343;28;20515;-74
2021/12/01 06:25:40;;;;;;;5.30;4.20;;;;;;;;;;5073268;28;20213;-74
2021/12/01 06:28:07;;;;;;;4.93;4.53;;;;;;;;;;5084675;28;20321;-73
2021/12/01 06:30:35;;;;;;;4.50;3.50;;;;;;;;;;5093391;28;20534;-73
2021/12/01 06:33:03;;;;;;;4.65;4.10;;;;;;;;;;5093186;28;20711;-74
2021/12/01 06:35:30;;;;;;;6.90;4.87;;;;;;;;;;5092937;28;20311;-75
2021/12/01 06:37:57;;;;;;;6.22;4.70;;;;;;;;;;5093488;28;20485;-77
2021/12/01 06:40:26;;;;;;;4.40;3.33;;;;;;;;;;5093502;28;20287;-76
2021/12/01 06:42:54;;;;;;;4.22;3.83;;;;;;;;;;5093671;28;20530;-76
2021/12/01 06:45:21;;;;;;;9.10;4.43;;;;;;;;;;5095949;28;20286;-76
2021/12/01 06:47:48;;;;;;;4.80;4.40;;;;;;;;;;5097712;28;20193;-77
2021/12/01 06:50:16;;;;;;;7.32;4.10;;;;;;;;;;5097553;28;20290;-78
2021/12/01 06:52:44;;;;;;;4.78;4.30;;;;;;;;;;5097709;28;20228;-78
2021/12/01 06:55:11;;;;;;;4.30;3.90;;;;;;;;;;5097782;28;20282;-79
2021/12/01 06:57:40;;;;;;;8.15;4.15;;;;;;;;;;5097455;28;20196;-81
2021/12/01 07:00:21;;;;;;;4.68;4.28;;;;;;;;;;5097168;28;20283;-80
2021/12/01 07:02:48;;;;;;;4.78;4.28;;;;;;;;;;5097777;28;20185;-80
2021/12/01 07:05:16;;;;;;;5.80;5.22;;;;;;;;;;5097354;28;20294;-81
2021/12/01 07:07:43;;;;;;;6.55;4.40;;;;;;;;;;5096987;28;20284;-80
2021/12/01 07:10:11;;;;;;;4.75;3.90;;;;;;;;;;5097198;28;20296;-81
2021/12/01 07:12:41;;;;;;;4.93;4.18;;;;;;;;;;5097136;28;20283;-79
2021/12/01 07:15:09;;;;;;;4.55;4.15;;;;;;;;;;5097435;28;20639;-80
2021/12/01 07:17:36;;;;;;;6.30;5.10;;;;;;;;;;5097097;28;20242;-80
2021/12/01 07:20:04;;;;;;;4.68;4.28;;;;;;;;;;5096681;28;20288;-81
2021/12/01 07:22:32;;;;;;;6.13;4.82;;;;;;;;;;5096642;28;20239;-80
2021/12/01 07:24:59;;;;;;;6.85;5.75;;;;;;;;;;5096849;28;20291;-80
2021/12/01 07:27:26;;;;;;;7.10;5.45;;;;;;;;;;5096483;28;20291;-80
2021/12/01 07:29:57;;;;;;;5.85;5.35;;;;;;;;;;5096706;28;20278;-79
2021/12/01 07:32:24;;;;;;;8.75;4.72;;;;;;;;;;5097217;28;20187;-80
2021/12/01 07:34:56;;;;;;;6.28;5.70;;;;;;;;;;5096360;28;20224;-79
2021/12/01 07:37:23;;;;;;;5.43;4.93;;;;;;;;;;5096449;28;20231;-79
2021/12/01 07:39:51;;;;;;;6.28;5.60;;;;;;;;;;5096287;28;20192;-80
2021/12/01 07:42:19;;;;;;;6.00;5.40;;;;;;;;;;5096226;28;20196;-80
2021/12/01 07:44:46;;;;;;;5.50;4.72;;;;;;;;;;5096334;28;20239;-80
2021/12/01 07:47:15;;;;;;;5.95;5.38;;;;;;;;;;5096855;28;20240;-80
2021/12/01 07:49:43;;;;;;;4.90;4.47;;;;;;;;;;5096208;28;20283;-80
2021/12/01 07:52:10;;;;;;;5.47;5.05;;;;;;;;;;5096574;28;20203;-80
2021/12/01 07:54:39;;;;;;;5.45;4.95;;;;;;;;;;5096317;28;20274;-81
2021/12/01 07:57:06;;;;;;;4.65;4.25;;;;;;;;;;5096053;28;20288;-81
2021/12/01 07:59:34;;;;;;;7.07;5.35;;;;;;;;;;5095963;28;20196;-81
2021/12/01 08:02:01;;;;;;;5.53;5.03;;;;;;;;;;5095867;28;20231;-81
2021/12/01 08:04:30;;;;;;;6.18;4.75;;;;;;;;;;5096343;28;20229;-80
2021/12/01 08:06:57;;;;;;;4.82;4.45;;;;;;;;;;5096013;28;20669;-80
2021/12/01 08:09:25;;;;;;;5.82;5.03;;;;;;;;;;5096074;28;20256;-79
2021/12/01 08:11:53;;;;;;;5.45;4.93;;;;;;;;;;5095890;28;20196;-79
2021/12/01 08:14:20;;;;;;;5.68;5.18;;;;;;;;;;5096084;28;20256;-79
2021/12/01 08:16:47;;;;;;;6.22;5.45;;;;;;;;;;5095544;28;20284;-79
2021/12/01 08:19:15;;;;;;;6.45;5.85;;;;;;;;;;5095506;28;20230;-79
2021/12/01 08:21:47;;;;;;;6.50;5.95;;;;;;;;;;5096111;28;20296;-79
2021/12/01 08:24:15;;;;;;;8.77;5.75;;;;;;;;;;5095404;28;20271;-80
2021/12/01 08:26:42;;;;;;;7.00;5.63;;;;;;;;;;5095671;28;20195;-80
2021/12/01 08:29:10;;;;;;;6.53;5.93;;;;;;;;;;5095851;28;20267;-79
2021/12/01 08:31:37;;;;;;;6.47;5.88;;;;;;;;;;5095632;28;20287;-79
2021/12/01 08:34:05;;;;;;;7.50;5.45;;;;;;;;;;5095506;28;20235;-80
2021/12/01 08:36:32;;;;;;;6.82;6.13;;;;;;;;;;5096020;28;20245;-80
2021/12/01 08:39:01;;;;;;;4.50;4.05;;;;;;;;;;5095139;28;20706;-80
2021/12/01 08:41:28;;;;;;;6.38;5.78;;;;;;;;;;5095361;28;20249;-80
2021/12/01 08:43:55;;;;;;;7.03;5.75;;;;;;;;;;5095108;28;20203;-80
2021/12/01 08:46:22;;;;;;;6.40;5.80;;;;;;;;;;5095294;28;20204;-79
2021/12/01 08:48:50;;;;;;;6.75;6.15;;;;;;;;;;5094985;28;20287;-80
2021/12/01 08:51:17;;;;;;;5.90;5.40;;;;;;;;;;5095127;28;20292;-81
2021/12/01 08:53:44;;;;;;;5.95;5.35;;;;;;;;;;5095204;28;20611;-81
2021/12/01 08:56:13;;;;;;;5.07;4.65;;;;;;;;;;5095127;28;20308;-81
2021/12/01 08:58:40;;;;;;;5.30;4.80;;;;;;;;;;5094511;28;20232;-81
2021/12/01 09:01:08;;;;;;;5.25;4.85;;;;;;;;;;5095409;28;20287;-81
2021/12/01 09:03:36;;;;;;;3.72;3.40;;;;;;;;;;5094551;28;20282;-81
2021/12/01 09:06:03;;;;;;;4.13;3.83;;;;;;;;;;5094717;28;20196;-80
2021/12/01 09:08:30;;;;;;;4.43;4.10;;;;;;;;;;5093996;28;20239;-81
2021/12/01 09:10:59;;;;;;;4.20;3.80;;;;;;;;;;5094533;28;20749;-80
2021/12/01 09:13:29;;;;;;;3.90;3.47;;;;;;;;;;5094812;28;20481;-80
2021/12/01 09:15:56;;;;;;;3.97;3.72;;;;;;;;;;5094696;28;20717;-79
2021/12/01 09:18:24;;;;;;;3.53;3.22;;;;;;;;;;5094678;28;20629;-79
2021/12/01 09:20:52;;;;;;;3.60;3.40;;;;;;;;;;5094355;28;20706;-79
2021/12/01 09:23:20;;;;;;;3.13;2.80;;;;;;;;;;5094558;28;20284;-80
2021/12/01 09:25:47;;;;;;;2.20;2.10;;;;;;;;;;5094558;28;20573;-79
2021/12/01 09:28:16;;;;;;;2.80;2.60;;;;;;;;;;5094439;28;20312;-81
2021/12/01 09:30:45;;;;;;;3.35;2.80;;;;;;;;;;5093774;28;20235;-80
2021/12/01 09:33:12;;;;;;;3.03;2.83;;;;;;;;;;5094072;28;20240;-80
2021/12/01 09:35:39;;;;;;;2.72;2.53;;;;;;;;;;5094371;28;20259;-80
2021/12/01 09:38:07;;;;;;;7.05;2.40;;;;;;;;;;5094215;28;20717;-79
2021/12/01 09:40:34;;;;;;;2.78;2.58;;;;;;;;;;5094042;28;20704;-80
2021/12/01 09:43:01;;;;;;;2.67;2.55;;;;;;;;;;5094245;28;20288;-78
2021/12/01 09:45:29;;;;;;;2.10;2.00;;;;;;;;;;5093938;28;20291;-79
2021/12/01 09:47:57;;;;;;;2.20;2.03;;;;;;;;;;5093973;28;20647;-79
2021/12/01 09:50:25;;;;;;;3.90;2.47;;;;;;;;;;5094218;28;20550;-80
2021/12/01 09:52:57;;;;;;;2.95;2.38;;;;;;;;;;5094105;28;20228;-80
2021/12/01 09:55:32;;;;;;;2.90;2.25;;;;;;;;;;5094588;28;20209;-79
2021/12/01 09:58:01;;;;;;;2.28;2.10;;;;;;;;;;5094549;28;20197;-80
2021/12/01 10:00:29;;;;;;;2.10;2.00;;;;;;;;;;5093698;28;20231;-80
2021/12/01 10:02:58;;;;;;;2.80;2.70;;;;;;;;;;5093617;28;20247;-79
2021/12/01 10:05:43;;;;;;;2.40;2.30;;;;;;;;;;5093819;28;20245;-80
2021/12/01 10:08:14;;;;;;;2.20;2.10;;;;;;;;;;5093555;28;20726;-79
2021/12/01 10:10:42;;;;;;;4.50;2.97;;;;;;;;;;5093413;28;20276;-79
2021/12/01 10:13:09;;;;;;;3.37;3.17;;;;;;;;;;5094321;28;20526;-79
2021/12/01 10:15:36;;;;;;;2.72;2.53;;;;;;;;;;5093389;28;20997;-79
2021/12/01 10:18:12;;;;;;;3.40;3.20;;;;;;;;;;5093115;28;20236;-78
2021/12/01 10:20:40;;;;;;;2.95;2.75;;;;;;;;;;5093964;28;20429;-79
2021/12/01 10:23:08;;;;;;;2.95;2.75;;;;;;;;;;5093443;28;20229;-79
2021/12/01 10:25:35;;;;;;;3.63;3.30;;;;;;;;;;5093299;28;20235;-76
2021/12/01 10:28:02;;;;;;;3.47;3.20;;;;;;;;;;5093430;28;20994;-77
2021/12/01 10:30:40;;;;;;;3.50;3.10;;;;;;;;;;5093703;28;20287;-77
2021/12/01 10:33:08;;;;;;;4.82;3.35;;;;;;;;;;5094102;28;20268;-79
2021/12/01 10:35:37;;;;;;;2.72;2.30;;;;;;;;;;5093135;28;20312;-77
2021/12/01 10:38:07;;;;;;;3.85;2.95;;;;;;;;;;5093165;28;20196;-78
2021/12/01 10:40:34;;;;;;;3.17;2.97;;;;;;;;;;5093144;28;20229;-77
2021/12/01 10:43:02;;;;;;;3.60;3.40;;;;;;;;;;5093207;28;20284;-77
2021/12/01 10:45:31;;;;;;;3.65;3.38;;;;;;;;;;5093580;28;20236;-77
2021/12/01 10:47:59;;;;;;;3.00;2.80;;;;;;;;;;5093680;28;20646;-76
2021/12/01 10:50:27;;;;;;;3.40;2.95;;;;;;;;;;5094035;28;20224;-76
2021/12/01 10:53:02;;;;;;;2.90;2.70;;;;;;;;;;5093367;28;20228;-77
2021/12/01 10:55:30;;;;;;;2.10;2.00;;;;;;;;;;5093880;28;20893;-75
2021/12/01 10:57:58;;;;;;;3.67;3.38;;;;;;;;;;5093281;28;20470;-75
2021/12/01 11:00:27;;;;;;;3.00;2.80;;;;;;;;;;5093015;28;20250;-77
2021/12/01 11:02:55;;;;;;;3.28;3.08;;;;;;;;;;5093233;28;20200;-78
2021/12/01 11:05:29;;;;;;;3.38;3.17;;;;;;;;;;5093234;28;20201;-79
2021/12/01 11:07:58;;;;;;;3.00;2.80;;;;;;;;;;5093231;28;20196;-81
2021/12/01 11:10:26;;;;;;;5.55;4.10;;;;;;;;;;5093240;28;20200;-80
2021/12/01 11:12:55;;;;;;;3.55;3.25;;;;;;;;;;5092985;28;20199;-80
2021/12/01 11:15:24;;;;;;;3.65;3.35;;;;;;;;;;5092773;28;20212;-81
2021/12/01 11:17:52;;;;;;;3.88;3.63;;;;;;;;;;5093909;28;20253;-80
2021/12/01 11:20:34;;;;;;;3.80;3.60;;;;;;;;;;5092823;28;20203;-79
2021/12/01 11:23:13;;;;;;;3.75;3.55;;;;;;;;;;5091127;28;20511;-79
2021/12/01 11:25:41;;;;;;;5.60;5.05;;;;;;;;;;5093538;28;20224;-81
2021/12/01 11:28:09;;;;;;;7.30;4.95;;;;;;;;;;5092926;28;20328;-80
2021/12/01 11:30:37;;;;;;;5.00;4.60;;;;;;;;;;5094298;28;20235;-84
2021/12/01 11:33:05;;;;;;;11.77;3.63;;;;;;;;;;5096535;28;20286;-84
2021/12/01 11:35:32;;;;;;;2.10;2.00;;;;;;;;;;5096697;28;20253;-83
2021/12/01 11:37:59;;;;;;;1.95;1.75;;;;;;;;;;5096774;28;20196;-84
2021/12/01 11:40:29;;;;;;;1.80;1.70;;;;;;;;;;5097151;28;20229;-82
2021/12/01 11:42:56;;;;;;;2.30;1.38;;;;;;;;;;5096456;28;20282;-82
2021/12/01 11:45:24;;;;;;;1.23;1.23;;;;;;;;;;5096473;28;20235;-82
2021/12/01 11:47:53;;;;;;;1.73;1.63;;;;;;;;;;5096636;28;20283;-83
2021/12/01 11:50:22;;;;;;;1.70;1.60;;;;;;;;;;5096302;28;20236;-79
2021/12/01 11:52:57;;;;;;;1.80;1.70;;;;;;;;;;5097062;28;20283;-82
2021/12/01 11:55:39;;;;;;;1.77;1.67;;;;;;;;;;5096294;28;20272;-81
2021/12/01 11:58:09;;;;;;;1.52;1.42;;;;;;;;;;5096260;28;20284;-78
2021/12/01 12:00:48;;;;;;;1.77;1.67;;;;;;;;;;5096119;28;20224;-79
2021/12/01 12:03:25;;;;;;;2.40;1.58;;;;;;;;;;5095865;28;20242;-79
2021/12/01 12:06:10;;;;;;;3.78;1.90;;;;;;;;;;5095837;28;20200;-79
2021/12/01 12:08:56;;;;;;;3.63;1.75;;;;;;;;;;5086321;28;20196;-79
2021/12/01 12:11:36;;;;;;;1.90;1.63;;;;;;;;;;5096012;28;20611;-79
2021/12/01 12:14:06;;;;;;;3.53;2.28;;;;;;;;;;5095684;28;20196;-79
2021/12/01 12:16:34;;;;;;;5.25;2.60;;;;;;;;;;5096227;28;20294;-76
2021/12/01 12:19:01;;;;;;;3.08;2.20;;;;;;;;;;5096454;28;20291;-76
2021/12/01 12:21:37;;;;;;;4.32;2.30;;;;;;;;;;5095543;28;20189;-76
2021/12/01 12:24:13;;;;;;;3.43;1.60;;;;;;;;;;5096236;28;20741;-74
2021/12/01 12:26:43;;;;;;;1.60;1.50;;;;;;;;;;5096386;28;20476;-74
2021/12/01 12:29:18;;;;;;;1.92;1.83;;;;;;;;;;5096197;28;20483;-74
2021/12/01 12:31:45;;;;;;;3.27;2.43;;;;;;;;;;5095371;28;20268;-74
2021/12/01 12:34:15;;;;;;;1.83;1.73;;;;;;;;;;5095295;28;20439;-74
2021/12/01 12:36:44;;;;;;;6.47;3.38;;;;;;;;;;5095592;28;20890;-74
2021/12/01 12:39:12;;;;;;;4.40;2.17;;;;;;;;;;5095222;28;20194;-77
2021/12/01 12:42:00;;;;;;;2.28;2.13;;;;;;;;;;5095474;28;20202;-73
2021/12/01 12:44:29;;;;;;;3.80;2.03;;;;;;;;;;5095996;28;20300;-76
2021/12/01 12:47:03;;;;;;;1.55;1.45;;;;;;;;;;5096090;28;20533;-75
2021/12/01 12:49:41;;;;;;;2.33;1.92;;;;;;;;;;5095307;28;20228;-77
2021/12/01 12:52:26;;;;;;;3.50;1.92;;;;;;;;;;5095489;28;20221;-75
2021/12/01 12:54:54;;;;;;;1.73;1.48;;;;;;;;;;5095258;28;20276;-74
2021/12/01 12:57:22;;;;;;;6.25;2.17;;;;;;;;;;5094609;28;20228;-75
2021/12/01 12:59:51;;;;;;;3.08;1.67;;;;;;;;;;5095668;28;20615;-75
2021/12/01 13:02:32;;;;;;;6.07;1.90;;;;;;;;;;5095096;28;20599;-75
2021/12/01 13:05:01;;;;;;;2.28;1.50;;;;;;;;;;5094602;28;20197;-73
2021/12/01 13:07:36;;;;;;;6.93;2.17;;;;;;;;;;5095110;28;20329;-75
2021/12/01 13:10:05;;;;;;;2.03;1.77;;;;;;;;;;5094888;28;20195;-72
2021/12/01 13:12:44;;;;;;;3.17;1.60;;;;;;;;;;5094962;28;20287;-72
2021/12/01 13:15:20;;;;;;;3.38;1.67;;;;;;;;;;5094877;28;20198;-73
2021/12/01 13:17:48;;;;;;;2.05;1.95;;;;;;;;;;5094241;28;20302;-72
2021/12/01 13:20:15;;;;;;;2.20;1.53;;;;;;;;;;5094337;28;20239;-72
2021/12/01 13:22:42;;;;;;;4.85;1.80;;;;;;;;;;5094567;28;20479;-72
2021/12/01 13:25:17;;;;;;;2.50;1.85;;;;;;;;;;5095100;28;20235;-72
2021/12/01 13:27:45;;;;;;;2.05;1.50;;;;;;;;;;5094385;28;20239;-72
2021/12/01 13:30:13;;;;;;;2.90;1.92;;;;;;;;;;5094126;28;20236;-72
2021/12/01 13:32:43;;;;;;;1.85;1.63;;;;;;;;;;5093582;28;20200;-72
2021/12/01 13:35:10;;;;;;;1.98;1.80;;;;;;;;;;5094479;28;20192;-71
2021/12/01 13:37:37;;;;;;;4.50;2.38;;;;;;;;;;5094339;28;20615;-70
2021/12/01 13:40:09;;;;;;;2.33;1.95;;;;;;;;;;5094003;28;20204;-71
2021/12/01 13:42:36;;;;;;;5.75;1.90;;;;;;;;;;5094560;28;20189;-71
2021/12/01 13:45:05;;;;;;;2.45;2.10;;;;;;;;;;5093865;28;20232;-70
2021/12/01 13:47:34;;;;;;;5.97;2.40;;;;;;;;;;5094009;28;20212;-69
2021/12/01 13:50:07;;;;;;;4.23;2.03;;;;;;;;;;5094167;28;20871;-70
2021/12/01 13:52:35;;;;;;;2.17;1.70;;;;;;;;;;5094418;28;20463;-70
2021/12/01 13:55:15;;;;;;;2.47;1.83;;;;;;;;;;5093451;28;20203;-70
2021/12/01 13:57:42;;;;;;;1.95;1.73;;;;;;;;;;5093989;28;20483;-70
2021/12/01 14:00:10;;;;;;;3.75;2.33;;;;;;;;;;5093765;28;20287;-70
2021/12/01 14:02:37;;;;;;;2.97;2.43;;;;;;;;;;5093972;28;20284;-70
2021/12/01 14:05:07;;;;;;;3.80;2.15;;;;;;;;;;5094070;28;20504;-70
2021/12/01 14:07:46;;;;;;;4.68;2.28;;;;;;;;;;5093982;28;20274;-70
2021/12/01 14:10:15;;;;;;;4.28;2.38;;;;;;;;;;5093688;28;20206;-69
2021/12/01 14:12:44;;;;;;;4.93;2.35;;;;;;;;;;5093758;28;20279;-69
2021/12/01 14:15:11;;;;;;;5.95;2.40;;;;;;;;;;5094137;28;20205;-69
2021/12/01 14:17:39;;;;;;;3.72;2.25;;;;;;;;;;5093307;28;20304;-69
2021/12/01 14:20:09;;;;;;;5.47;2.15;;;;;;;;;;5093450;28;20232;-69
2021/12/01 14:22:36;;;;;;;4.20;2.47;;;;;;;;;;5093442;28;20255;-68
2021/12/01 14:25:03;;;;;;;2.67;2.05;;;;;;;;;;5093649;28;20522;-69
2021/12/01 14:27:32;;;;;;;3.05;2.03;;;;;;;;;;5093273;28;20312;-68
2021/12/01 14:30:00;;;;;;;4.47;2.30;;;;;;;;;;5093704;28;20192;-69
2021/12/01 14:32:28;;;;;;;7.90;2.50;;;;;;;;;;5093615;28;20197;-69
2021/12/01 14:34:55;;;;;;;6.85;2.50;;;;;;;;;;5093394;28;20657;-69
2021/12/01 14:37:26;;;;;;;2.95;1.70;;;;;;;;;;5093110;28;20466;-69
2021/12/01 14:39:53;;;;;;;4.55;2.20;;;;;;;;;;5093102;28;20185;-69
2021/12/01 14:42:23;;;;;;;5.53;2.20;;;;;;;;;;5093195;28;20286;-68
2021/12/01 14:44:50;;;;;;;3.78;1.95;;;;;;;;;;5093193;28;20199;-70
2021/12/01 14:47:19;;;;;;;3.85;2.75;;;;;;;;;;5093286;28;20294;-70
2021/12/01 14:49:47;;;;;;;4.90;2.40;;;;;;;;;;5093496;28;20189;-69
2021/12/01 14:52:20;;;;;;;2.58;2.15;;;;;;;;;;5093302;28;20235;-69
2021/12/01 14:54:54;;;;;;;4.30;2.25;;;;;;;;;;5094145;28;20264;-69